ITY392 LEPA-EGKK
Flight info
| Callsign | ITY392 |
|---|---|
| Flight time | 2h 2m |
| Altitude | 40000 |
| Route | LEPA DRAG5A DRAGO DCT PAPOS DCT UMURE DCT XIKEN DCT KARES DCT ARBEK DCT REBUL DCT USKAR DCT MOPAS DCT GIROM DCT GONUP DCT MANAK DCT TIRAV DCT DIXAD DCT NTS DCT BAKUL DCT REN DCT UPALO DCT REVTU DCT ODREP UP88 VASUX VASU1G EGKK |
| Aircraft | A359/H-VGD/A |
Departure
| Time | 2026-05-04 19:58 |
|---|---|
| Airport | Palma de Mallorca Airport (LEPA) |
Arrival
| Time | 2026-05-04 22:00 |
|---|---|
| Airport | London Gatwick Airport (EGKK) |
| Time | Latitude | Longitude | Altitude | Speed | Heading |
|---|---|---|---|---|---|
| 2026-05-04 19:08 | 39.55009 | 2.73740 | 45 ft | 0 kts | 239° |
| 2026-05-04 19:39 | 39.55018 | 2.73761 | 42 ft | 3 kts | 239° |
| 2026-05-04 19:39 | 39.55027 | 2.73782 | 43 ft | 3 kts | 239° |
| 2026-05-04 19:39 | 39.55035 | 2.73806 | 40 ft | 3 kts | 274° |
| 2026-05-04 19:40 | 39.55031 | 2.73830 | 41 ft | 3 kts | 287° |
| 2026-05-04 19:40 | 39.55026 | 2.73854 | 41 ft | 3 kts | 295° |
| 2026-05-04 19:40 | 39.55019 | 2.73870 | 39 ft | 0 kts | 324° |
| 2026-05-04 19:48 | 39.55029 | 2.73861 | 41 ft | 5 kts | 326° |
| 2026-05-04 19:48 | 39.55076 | 2.73826 | 44 ft | 10 kts | 329° |
| 2026-05-04 19:48 | 39.55137 | 2.73792 | 44 ft | 7 kts | 6° |
| 2026-05-04 19:48 | 39.55191 | 2.73808 | 44 ft | 9 kts | 8° |
| 2026-05-04 19:49 | 39.55248 | 2.73796 | 44 ft | 8 kts | 331° |
| 2026-05-04 19:49 | 39.55301 | 2.73755 | 44 ft | 10 kts | 327° |
| 2026-05-04 19:49 | 39.55367 | 2.73701 | 44 ft | 13 kts | 327° |
| 2026-05-04 19:49 | 39.55451 | 2.73632 | 44 ft | 15 kts | 328° |
| 2026-05-04 19:50 | 39.55550 | 2.73553 | 44 ft | 18 kts | 331° |
| 2026-05-04 19:50 | 39.55651 | 2.73528 | 44 ft | 11 kts | 29° |
| 2026-05-04 19:50 | 39.55702 | 2.73604 | 44 ft | 11 kts | 59° |
| 2026-05-04 19:50 | 39.55749 | 2.73698 | 44 ft | 14 kts | 57° |
| 2026-05-04 19:51 | 39.55805 | 2.73815 | 44 ft | 17 kts | 58° |
| 2026-05-04 19:51 | 39.55870 | 2.73954 | 44 ft | 19 kts | 58° |
| 2026-05-04 19:51 | 39.55946 | 2.74113 | 44 ft | 22 kts | 58° |
| 2026-05-04 19:51 | 39.56029 | 2.74291 | 44 ft | 24 kts | 58° |
| 2026-05-04 19:52 | 39.56116 | 2.74440 | 44 ft | 9 kts | 31° |
| 2026-05-04 19:52 | 39.56123 | 2.74443 | 44 ft | 0 kts | 22° |
| 2026-05-04 19:55 | 39.56132 | 2.74445 | 44 ft | 5 kts | 9° |
| 2026-05-04 19:55 | 39.56192 | 2.74424 | 44 ft | 13 kts | 338° |
| 2026-05-04 19:56 | 39.56245 | 2.74330 | 44 ft | 12 kts | 265° |
| 2026-05-04 19:56 | 39.56200 | 2.74205 | 44 ft | 18 kts | 238° |
| 2026-05-04 19:56 | 39.56177 | 2.74158 | 44 ft | 0 kts | 237° |
| 2026-05-04 19:57 | 39.56076 | 2.73952 | 44 ft | 64 kts | 239° |
| 2026-05-04 19:57 | 39.55720 | 2.73202 | 43 ft | 130 kts | 238° |
| 2026-05-04 19:57 | 39.55159 | 2.72063 | 410 ft | 155 kts | 236° |
| 2026-05-04 19:58 | 39.54561 | 2.70906 | 1128 ft | 156 kts | 235° |
| 2026-05-04 19:58 | 39.53960 | 2.69728 | 1810 ft | 154 kts | 236° |
| 2026-05-04 19:58 | 39.53379 | 2.68577 | 2484 ft | 151 kts | 236° |
| 2026-05-04 19:58 | 39.52815 | 2.67454 | 3119 ft | 146 kts | 238° |
| 2026-05-04 19:59 | 39.52270 | 2.66349 | 3692 ft | 144 kts | 238° |
| 2026-05-04 19:59 | 39.51732 | 2.65256 | 4203 ft | 144 kts | 238° |
| 2026-05-04 19:59 | 39.51188 | 2.64161 | 4654 ft | 145 kts | 239° |
| 2026-05-04 19:59 | 39.50630 | 2.63043 | 5016 ft | 154 kts | 240° |
| 2026-05-04 20:00 | 39.50026 | 2.61832 | 5250 ft | 171 kts | 238° |
| 2026-05-04 20:00 | 39.49339 | 2.60471 | 5475 ft | 191 kts | 238° |
| 2026-05-04 20:00 | 39.48571 | 2.58958 | 5858 ft | 209 kts | 238° |
| 2026-05-04 20:00 | 39.47764 | 2.57370 | 5984 ft | 212 kts | 238° |
| 2026-05-04 20:01 | 39.46966 | 2.55774 | 5997 ft | 211 kts | 240° |
| 2026-05-04 20:01 | 39.46433 | 2.54020 | 5996 ft | 210 kts | 261° |
| 2026-05-04 20:01 | 39.46527 | 2.52131 | 6011 ft | 218 kts | 286° |
| 2026-05-04 20:01 | 39.47335 | 2.50350 | 6267 ft | 244 kts | 307° |
| 2026-05-04 20:02 | 39.48508 | 2.48661 | 6912 ft | 257 kts | 309° |
| 2026-05-04 20:02 | 39.49742 | 2.46951 | 7719 ft | 263 kts | 308° |
| 2026-05-04 20:02 | 39.50999 | 2.45190 | 8620 ft | 268 kts | 308° |
| 2026-05-04 20:02 | 39.52268 | 2.43397 | 9532 ft | 273 kts | 307° |
| 2026-05-04 20:03 | 39.53541 | 2.41587 | 10363 ft | 279 kts | 307° |
| 2026-05-04 20:03 | 39.54891 | 2.39652 | 10818 ft | 300 kts | 307° |
| 2026-05-04 20:03 | 39.56362 | 2.37586 | 11195 ft | 323 kts | 308° |
| 2026-05-04 20:03 | 39.57964 | 2.35419 | 11638 ft | 340 kts | 309° |
| 2026-05-04 20:04 | 39.59623 | 2.33179 | 12337 ft | 348 kts | 309° |
| 2026-05-04 20:04 | 39.60748 | 2.31657 | 12879 ft | 352 kts | 309° |
| 2026-05-04 20:04 | 39.62453 | 2.29342 | 13689 ft | 357 kts | 309° |
| 2026-05-04 20:04 | 39.64177 | 2.26995 | 14404 ft | 362 kts | 308° |
| 2026-05-04 20:05 | 39.65919 | 2.24618 | 15152 ft | 365 kts | 308° |
| 2026-05-04 20:05 | 39.67675 | 2.22221 | 15925 ft | 368 kts | 308° |
| 2026-05-04 20:05 | 39.69447 | 2.19795 | 16691 ft | 371 kts | 307° |
| 2026-05-04 20:05 | 39.71239 | 2.17341 | 17428 ft | 375 kts | 307° |
| 2026-05-04 20:06 | 39.73024 | 2.14893 | 18184 ft | 378 kts | 307° |
| 2026-05-04 20:06 | 39.74842 | 2.12398 | 18843 ft | 382 kts | 307° |
| 2026-05-04 20:06 | 39.76676 | 2.09878 | 19492 ft | 386 kts | 307° |
| 2026-05-04 20:06 | 39.78530 | 2.07329 | 20163 ft | 390 kts | 306° |
| 2026-05-04 20:07 | 39.80401 | 2.04753 | 20825 ft | 395 kts | 306° |
| 2026-05-04 20:07 | 39.82303 | 2.02134 | 21497 ft | 399 kts | 306° |
| 2026-05-04 20:07 | 39.84216 | 1.99499 | 22168 ft | 403 kts | 306° |
| 2026-05-04 20:07 | 39.86147 | 1.96835 | 22854 ft | 406 kts | 306° |
| 2026-05-04 20:08 | 39.88098 | 1.94142 | 23521 ft | 410 kts | 306° |
| 2026-05-04 20:08 | 39.90063 | 1.91425 | 24054 ft | 414 kts | 306° |
| 2026-05-04 20:08 | 39.92049 | 1.88678 | 24629 ft | 418 kts | 306° |
| 2026-05-04 20:08 | 39.94054 | 1.85904 | 25205 ft | 421 kts | 306° |
| 2026-05-04 20:09 | 39.96072 | 1.83108 | 25774 ft | 425 kts | 306° |
| 2026-05-04 20:09 | 39.98083 | 1.80338 | 26303 ft | 429 kts | 307° |
| 2026-05-04 20:09 | 40.00360 | 1.77674 | 26853 ft | 440 kts | 315° |
| 2026-05-04 20:09 | 40.02962 | 1.75549 | 27389 ft | 454 kts | 326° |
| 2026-05-04 20:10 | 40.05853 | 1.73794 | 27879 ft | 462 kts | 330° |
| 2026-05-04 20:10 | 40.08851 | 1.72197 | 28415 ft | 468 kts | 332° |
| 2026-05-04 20:10 | 40.11903 | 1.70673 | 28926 ft | 471 kts | 332° |
| 2026-05-04 20:10 | 40.14989 | 1.69158 | 29443 ft | 475 kts | 332° |
| 2026-05-04 20:11 | 40.18100 | 1.67624 | 29951 ft | 478 kts | 332° |
| 2026-05-04 20:11 | 40.21219 | 1.66062 | 30353 ft | 481 kts | 332° |
| 2026-05-04 20:11 | 40.24350 | 1.64474 | 30768 ft | 484 kts | 332° |
| 2026-05-04 20:11 | 40.27493 | 1.62864 | 31129 ft | 487 kts | 332° |
| 2026-05-04 20:12 | 40.30608 | 1.61258 | 31488 ft | 489 kts | 332° |
| 2026-05-04 20:12 | 40.33828 | 1.59594 | 31851 ft | 492 kts | 332° |
| 2026-05-04 20:12 | 40.36979 | 1.57964 | 32212 ft | 494 kts | 332° |
| 2026-05-04 20:12 | 40.40178 | 1.56307 | 32535 ft | 496 kts | 332° |
| 2026-05-04 20:13 | 40.43394 | 1.54640 | 32709 ft | 499 kts | 332° |
| 2026-05-04 20:13 | 40.46676 | 1.52938 | 33241 ft | 500 kts | 332° |
| 2026-05-04 20:13 | 40.49903 | 1.51266 | 33803 ft | 497 kts | 332° |
| 2026-05-04 20:13 | 40.53072 | 1.49625 | 34256 ft | 495 kts | 332° |
| 2026-05-04 20:14 | 40.56273 | 1.47963 | 34606 ft | 494 kts | 332° |
| 2026-05-04 20:14 | 40.59463 | 1.46303 | 34955 ft | 494 kts | 332° |
| 2026-05-04 20:14 | 40.62660 | 1.44637 | 35306 ft | 493 kts | 332° |
| 2026-05-04 20:14 | 40.65844 | 1.42980 | 35625 ft | 493 kts | 332° |
| 2026-05-04 20:15 | 40.69043 | 1.41310 | 35954 ft | 492 kts | 332° |
| 2026-05-04 20:15 | 40.72223 | 1.39646 | 36278 ft | 492 kts | 332° |
| 2026-05-04 20:15 | 40.75403 | 1.37980 | 36576 ft | 492 kts | 332° |
| 2026-05-04 20:15 | 40.78577 | 1.36315 | 36876 ft | 491 kts | 332° |
| 2026-05-04 20:16 | 40.81753 | 1.34648 | 37181 ft | 491 kts | 332° |
| 2026-05-04 20:16 | 40.84932 | 1.32979 | 37485 ft | 490 kts | 332° |
| 2026-05-04 20:16 | 40.88103 | 1.31313 | 37784 ft | 490 kts | 332° |
| 2026-05-04 20:16 | 40.91273 | 1.29645 | 38107 ft | 490 kts | 332° |
| 2026-05-04 20:17 | 40.94409 | 1.27993 | 38306 ft | 491 kts | 332° |
| 2026-05-04 20:17 | 40.97595 | 1.26313 | 38576 ft | 491 kts | 332° |
| 2026-05-04 20:17 | 41.00761 | 1.24643 | 38799 ft | 490 kts | 332° |
| 2026-05-04 20:17 | 41.03928 | 1.22971 | 39001 ft | 490 kts | 332° |
| 2026-05-04 20:18 | 41.07109 | 1.21289 | 39204 ft | 490 kts | 332° |
| 2026-05-04 20:18 | 41.10279 | 1.19611 | 39377 ft | 490 kts | 332° |
| 2026-05-04 20:18 | 41.13503 | 1.18072 | 39566 ft | 495 kts | 338° |
| 2026-05-04 20:18 | 41.16844 | 1.17101 | 39704 ft | 502 kts | 347° |
| 2026-05-04 20:19 | 41.20310 | 1.16553 | 39869 ft | 504 kts | 349° |
| 2026-05-04 20:19 | 41.27321 | 1.15742 | 39963 ft | 506 kts | 350° |
| 2026-05-04 20:20 | 41.34354 | 1.15050 | 39976 ft | 505 kts | 351° |
| 2026-05-04 20:20 | 41.41391 | 1.14349 | 39966 ft | 506 kts | 351° |
| 2026-05-04 20:21 | 41.48353 | 1.13624 | 39943 ft | 505 kts | 351° |
| 2026-05-04 20:21 | 41.58864 | 1.12517 | 39948 ft | 505 kts | 351° |
| 2026-05-04 20:22 | 41.65878 | 1.11772 | 39953 ft | 505 kts | 351° |
| 2026-05-04 20:22 | 41.72902 | 1.11027 | 39964 ft | 505 kts | 351° |
| 2026-05-04 20:23 | 41.79907 | 1.10281 | 39980 ft | 505 kts | 351° |
| 2026-05-04 20:23 | 41.86887 | 1.09534 | 39979 ft | 505 kts | 351° |
| 2026-05-04 20:24 | 41.93900 | 1.08784 | 39985 ft | 505 kts | 351° |
| 2026-05-04 20:24 | 42.00920 | 1.08032 | 39990 ft | 505 kts | 351° |
| 2026-05-04 20:25 | 42.07939 | 1.07279 | 39976 ft | 506 kts | 351° |
| 2026-05-04 20:25 | 42.14968 | 1.06523 | 39970 ft | 506 kts | 351° |
| 2026-05-04 20:26 | 42.21974 | 1.05775 | 39962 ft | 506 kts | 351° |
| 2026-05-04 20:26 | 42.28963 | 1.05019 | 39953 ft | 507 kts | 351° |
| 2026-05-04 20:27 | 42.36007 | 1.04256 | 39944 ft | 507 kts | 351° |
| 2026-05-04 20:27 | 42.43037 | 1.03496 | 39947 ft | 507 kts | 351° |
| 2026-05-04 20:28 | 42.50073 | 1.02732 | 39953 ft | 507 kts | 351° |
| 2026-05-04 20:28 | 42.57083 | 1.01968 | 39958 ft | 508 kts | 351° |
| 2026-05-04 20:29 | 42.64164 | 1.01192 | 39978 ft | 507 kts | 351° |
| 2026-05-04 20:29 | 42.71167 | 1.00423 | 39987 ft | 508 kts | 351° |
| 2026-05-04 20:30 | 42.78186 | 0.99346 | 39992 ft | 503 kts | 343° |
| 2026-05-04 20:30 | 42.84979 | 0.97199 | 39996 ft | 500 kts | 341° |
| 2026-05-04 20:31 | 42.91690 | 0.94887 | 39993 ft | 500 kts | 341° |
| 2026-05-04 20:31 | 42.98450 | 0.92523 | 39997 ft | 501 kts | 341° |
| 2026-05-04 20:32 | 43.05108 | 0.89816 | 40006 ft | 498 kts | 335° |
| 2026-05-04 20:32 | 43.11570 | 0.86412 | 40009 ft | 497 kts | 333° |
| 2026-05-04 20:33 | 43.17969 | 0.82843 | 40005 ft | 497 kts | 333° |
| 2026-05-04 20:33 | 43.24381 | 0.79260 | 40011 ft | 497 kts | 333° |
| 2026-05-04 20:34 | 43.30801 | 0.75693 | 40015 ft | 498 kts | 334° |
| 2026-05-04 20:34 | 43.37198 | 0.72146 | 40002 ft | 499 kts | 334° |
| 2026-05-04 20:35 | 43.43640 | 0.68567 | 40010 ft | 499 kts | 334° |
| 2026-05-04 20:35 | 43.50091 | 0.64975 | 39998 ft | 500 kts | 334° |
| 2026-05-04 20:36 | 43.56543 | 0.61372 | 39996 ft | 500 kts | 334° |
| 2026-05-04 20:36 | 43.62991 | 0.57764 | 39999 ft | 500 kts | 334° |
| 2026-05-04 20:37 | 43.69450 | 0.54141 | 39993 ft | 501 kts | 334° |
| 2026-05-04 20:37 | 43.75917 | 0.50505 | 39988 ft | 501 kts | 334° |
| 2026-05-04 20:38 | 43.82323 | 0.46894 | 39988 ft | 501 kts | 334° |
| 2026-05-04 20:38 | 43.88789 | 0.43242 | 39992 ft | 501 kts | 334° |
| 2026-05-04 20:39 | 43.95253 | 0.39582 | 39989 ft | 501 kts | 334° |
| 2026-05-04 20:39 | 44.01675 | 0.35937 | 39989 ft | 501 kts | 334° |
| 2026-05-04 20:40 | 44.08063 | 0.32302 | 39987 ft | 502 kts | 334° |
| 2026-05-04 20:40 | 44.14526 | 0.28617 | 39987 ft | 502 kts | 334° |
| 2026-05-04 20:41 | 44.21000 | 0.24917 | 39986 ft | 502 kts | 334° |
| 2026-05-04 20:41 | 44.27466 | 0.21212 | 39983 ft | 502 kts | 334° |
| 2026-05-04 20:42 | 44.33947 | 0.17490 | 39977 ft | 503 kts | 334° |
| 2026-05-04 20:42 | 44.40422 | 0.13788 | 39983 ft | 503 kts | 336° |
| 2026-05-04 20:43 | 44.46942 | 0.10180 | 39979 ft | 504 kts | 336° |
| 2026-05-04 20:43 | 44.53411 | 0.06528 | 39979 ft | 504 kts | 336° |
| 2026-05-04 20:44 | 44.59888 | 0.02791 | 39978 ft | 504 kts | 336° |
| 2026-05-04 20:44 | 44.66373 | -0.00983 | 39995 ft | 504 kts | 336° |
| 2026-05-04 20:45 | 44.72850 | -0.04762 | 39981 ft | 504 kts | 336° |
| 2026-05-04 20:45 | 44.79326 | -0.08546 | 39979 ft | 504 kts | 336° |
| 2026-05-04 20:46 | 44.85810 | -0.12342 | 39974 ft | 504 kts | 336° |
| 2026-05-04 20:46 | 44.92288 | -0.16144 | 39974 ft | 504 kts | 336° |
| 2026-05-04 20:47 | 44.98722 | -0.19929 | 39974 ft | 504 kts | 336° |
| 2026-05-04 20:47 | 45.05195 | -0.23748 | 39979 ft | 504 kts | 336° |
| 2026-05-04 20:48 | 45.11676 | -0.27579 | 39974 ft | 504 kts | 336° |
| 2026-05-04 20:48 | 45.18124 | -0.31401 | 39976 ft | 504 kts | 336° |
| 2026-05-04 20:49 | 45.24595 | -0.35246 | 39968 ft | 505 kts | 336° |
| 2026-05-04 20:49 | 45.29997 | -0.38463 | 39970 ft | 505 kts | 336° |
| 2026-05-04 20:50 | 45.36477 | -0.42331 | 39964 ft | 505 kts | 336° |
| 2026-05-04 20:50 | 45.42968 | -0.46215 | 39966 ft | 505 kts | 336° |
| 2026-05-04 20:51 | 45.49453 | -0.50105 | 39964 ft | 505 kts | 336° |
| 2026-05-04 20:51 | 45.55941 | -0.54007 | 39966 ft | 505 kts | 336° |
| 2026-05-04 20:52 | 45.62377 | -0.57887 | 39963 ft | 505 kts | 336° |
| 2026-05-04 20:52 | 45.68856 | -0.61803 | 39966 ft | 505 kts | 336° |
| 2026-05-04 20:53 | 45.75345 | -0.65735 | 39962 ft | 505 kts | 336° |
| 2026-05-04 20:53 | 45.81830 | -0.69675 | 39960 ft | 506 kts | 336° |
| 2026-05-04 20:54 | 45.88280 | -0.73603 | 39965 ft | 506 kts | 336° |
| 2026-05-04 20:54 | 45.94774 | -0.77567 | 39959 ft | 506 kts | 336° |
| 2026-05-04 20:55 | 46.01228 | -0.81519 | 39960 ft | 506 kts | 336° |
| 2026-05-04 20:55 | 46.07712 | -0.85497 | 39959 ft | 506 kts | 336° |
| 2026-05-04 20:56 | 46.14116 | -0.89437 | 39958 ft | 506 kts | 336° |
| 2026-05-04 20:56 | 46.20406 | -0.93540 | 39951 ft | 505 kts | 330° |
| 2026-05-04 20:57 | 46.26140 | -0.99354 | 39987 ft | 502 kts | 321° |
| 2026-05-04 20:57 | 46.31610 | -1.05621 | 39984 ft | 501 kts | 320° |
| 2026-05-04 20:58 | 46.37032 | -1.11965 | 39982 ft | 501 kts | 320° |
| 2026-05-04 20:58 | 46.42450 | -1.18304 | 39969 ft | 500 kts | 320° |
| 2026-05-04 20:59 | 46.47831 | -1.24591 | 39980 ft | 501 kts | 321° |
| 2026-05-04 20:59 | 46.53224 | -1.30898 | 39984 ft | 501 kts | 321° |
| 2026-05-04 21:00 | 46.58690 | -1.37207 | 39993 ft | 502 kts | 324° |
| 2026-05-04 21:00 | 46.64751 | -1.42219 | 39993 ft | 502 kts | 333° |
| 2026-05-04 21:01 | 46.71039 | -1.46735 | 39995 ft | 504 kts | 334° |
| 2026-05-04 21:01 | 46.77364 | -1.51184 | 39992 ft | 504 kts | 334° |
| 2026-05-04 21:02 | 46.83699 | -1.55616 | 39991 ft | 505 kts | 336° |
| 2026-05-04 21:02 | 46.90354 | -1.58271 | 39983 ft | 505 kts | 354° |
| 2026-05-04 21:03 | 46.97381 | -1.59227 | 39972 ft | 508 kts | 356° |
| 2026-05-04 21:03 | 47.04450 | -1.59904 | 39966 ft | 509 kts | 357° |
| 2026-05-04 21:04 | 47.11522 | -1.60570 | 39970 ft | 509 kts | 356° |
| 2026-05-04 21:04 | 47.18586 | -1.61281 | 39963 ft | 509 kts | 356° |
| 2026-05-04 21:05 | 47.25637 | -1.62212 | 39966 ft | 508 kts | 355° |
| 2026-05-04 21:05 | 47.32648 | -1.63219 | 39968 ft | 507 kts | 355° |
| 2026-05-04 21:06 | 47.39631 | -1.64212 | 39968 ft | 507 kts | 355° |
| 2026-05-04 21:06 | 47.46659 | -1.65219 | 39956 ft | 507 kts | 355° |
| 2026-05-04 21:07 | 47.53686 | -1.66222 | 39958 ft | 506 kts | 355° |
| 2026-05-04 21:07 | 47.60697 | -1.67223 | 39954 ft | 506 kts | 355° |
| 2026-05-04 21:08 | 47.67725 | -1.68228 | 39964 ft | 507 kts | 355° |
| 2026-05-04 21:08 | 47.74709 | -1.69229 | 39957 ft | 507 kts | 355° |
| 2026-05-04 21:09 | 47.81680 | -1.70231 | 39974 ft | 506 kts | 355° |
| 2026-05-04 21:09 | 47.88686 | -1.71240 | 39984 ft | 504 kts | 355° |
| 2026-05-04 21:10 | 47.95663 | -1.72250 | 39989 ft | 503 kts | 355° |
| 2026-05-04 21:10 | 48.02618 | -1.73258 | 39985 ft | 503 kts | 355° |
| 2026-05-04 21:11 | 48.09362 | -1.73879 | 39987 ft | 501 kts | 360° |
| 2026-05-04 21:11 | 48.16041 | -1.74022 | 39996 ft | 502 kts | 0° |
| 2026-05-04 21:12 | 48.23036 | -1.74100 | 39995 ft | 502 kts | 1° |
| 2026-05-04 21:12 | 48.30005 | -1.74170 | 39978 ft | 501 kts | 1° |
| 2026-05-04 21:13 | 48.36782 | -1.74247 | 39985 ft | 500 kts | 1° |
| 2026-05-04 21:13 | 48.43553 | -1.74329 | 39977 ft | 501 kts | 1° |
| 2026-05-04 21:14 | 48.49468 | -1.74401 | 39982 ft | 501 kts | 1° |
| 2026-05-04 21:14 | 48.56081 | -1.74482 | 39981 ft | 501 kts | 1° |
| 2026-05-04 21:15 | 48.63005 | -1.74567 | 39980 ft | 501 kts | 1° |
| 2026-05-04 21:15 | 48.69979 | -1.74652 | 39984 ft | 501 kts | 1° |
| 2026-05-04 21:16 | 48.76932 | -1.74737 | 39989 ft | 501 kts | 1° |
| 2026-05-04 21:16 | 48.83891 | -1.74823 | 39991 ft | 501 kts | 1° |
| 2026-05-04 21:17 | 48.90872 | -1.74909 | 39996 ft | 502 kts | 0° |
| 2026-05-04 21:17 | 48.97862 | -1.74803 | 39996 ft | 502 kts | 3° |
| 2026-05-04 21:18 | 49.03955 | -1.74504 | 39984 ft | 502 kts | 3° |
| 2026-05-04 21:18 | 49.10945 | -1.74169 | 40004 ft | 502 kts | 3° |
| 2026-05-04 21:19 | 49.17919 | -1.73881 | 40000 ft | 501 kts | 2° |
| 2026-05-04 21:19 | 49.24900 | -1.73614 | 40006 ft | 501 kts | 2° |
| 2026-05-04 21:20 | 49.31869 | -1.73433 | 40010 ft | 501 kts | 0° |
| 2026-05-04 21:20 | 49.38786 | -1.73313 | 40003 ft | 500 kts | 0° |
| 2026-05-04 21:21 | 49.45751 | -1.73102 | 40005 ft | 500 kts | 1° |
| 2026-05-04 21:21 | 49.52687 | -1.72838 | 40008 ft | 500 kts | 1° |
| 2026-05-04 21:22 | 49.59046 | -1.72202 | 39964 ft | 498 kts | 9° |
| 2026-05-04 21:22 | 49.62416 | -1.70986 | 39403 ft | 497 kts | 17° |
| 2026-05-04 21:22 | 49.65474 | -1.69497 | 38682 ft | 500 kts | 19° |
| 2026-05-04 21:23 | 49.68786 | -1.67726 | 37769 ft | 502 kts | 20° |
| 2026-05-04 21:23 | 49.72033 | -1.65911 | 37046 ft | 502 kts | 21° |
| 2026-05-04 21:23 | 49.75208 | -1.64110 | 36369 ft | 502 kts | 21° |
| 2026-05-04 21:23 | 49.78544 | -1.62219 | 35623 ft | 502 kts | 21° |
| 2026-05-04 21:24 | 49.81828 | -1.60367 | 34900 ft | 504 kts | 21° |
| 2026-05-04 21:24 | 49.85139 | -1.58509 | 34074 ft | 508 kts | 21° |
| 2026-05-04 21:24 | 49.88387 | -1.56695 | 33124 ft | 512 kts | 21° |
| 2026-05-04 21:24 | 49.91857 | -1.54760 | 32199 ft | 514 kts | 21° |
| 2026-05-04 21:25 | 49.95201 | -1.52895 | 31281 ft | 517 kts | 21° |
| 2026-05-04 21:25 | 49.98589 | -1.51002 | 30338 ft | 520 kts | 21° |
| 2026-05-04 21:25 | 50.02002 | -1.49110 | 29449 ft | 520 kts | 20° |
| 2026-05-04 21:25 | 50.05426 | -1.47362 | 28825 ft | 514 kts | 19° |
| 2026-05-04 21:26 | 50.08789 | -1.45748 | 28160 ft | 508 kts | 18° |
| 2026-05-04 21:26 | 50.11999 | -1.44236 | 27517 ft | 503 kts | 18° |
| 2026-05-04 21:26 | 50.15337 | -1.42660 | 26872 ft | 499 kts | 18° |
| 2026-05-04 21:26 | 50.18614 | -1.41093 | 26225 ft | 494 kts | 18° |
| 2026-05-04 21:27 | 50.21815 | -1.39543 | 25595 ft | 489 kts | 18° |
| 2026-05-04 21:27 | 50.25049 | -1.37962 | 24946 ft | 485 kts | 18° |
| 2026-05-04 21:27 | 50.28216 | -1.36404 | 24316 ft | 480 kts | 18° |
| 2026-05-04 21:27 | 50.31387 | -1.34837 | 23677 ft | 475 kts | 18° |
| 2026-05-04 21:28 | 50.34523 | -1.33286 | 22983 ft | 470 kts | 19° |
| 2026-05-04 21:28 | 50.37621 | -1.31753 | 22342 ft | 463 kts | 19° |
| 2026-05-04 21:28 | 50.40667 | -1.30244 | 21709 ft | 456 kts | 19° |
| 2026-05-04 21:28 | 50.43674 | -1.28752 | 21086 ft | 449 kts | 19° |
| 2026-05-04 21:29 | 50.46619 | -1.27290 | 20467 ft | 443 kts | 19° |
| 2026-05-04 21:29 | 50.49506 | -1.25653 | 19836 ft | 436 kts | 26° |
| 2026-05-04 21:29 | 50.52010 | -1.23189 | 19234 ft | 427 kts | 39° |
| 2026-05-04 21:29 | 50.54320 | -1.20224 | 18615 ft | 422 kts | 41° |
| 2026-05-04 21:30 | 50.56526 | -1.17305 | 17968 ft | 416 kts | 42° |
| 2026-05-04 21:30 | 50.58728 | -1.14387 | 17334 ft | 410 kts | 41° |
| 2026-05-04 21:30 | 50.60895 | -1.11521 | 16718 ft | 404 kts | 41° |
| 2026-05-04 21:30 | 50.62890 | -1.08883 | 16158 ft | 398 kts | 41° |
| 2026-05-04 21:31 | 50.66870 | -1.03029 | 14963 ft | 387 kts | 50° |
| 2026-05-04 21:31 | 50.68567 | -0.99798 | 14778 ft | 372 kts | 51° |
| 2026-05-04 21:31 | 50.70160 | -0.96716 | 14644 ft | 355 kts | 51° |
| 2026-05-04 21:32 | 50.71685 | -0.93765 | 14520 ft | 340 kts | 51° |
| 2026-05-04 21:32 | 50.73148 | -0.90936 | 14388 ft | 326 kts | 52° |
| 2026-05-04 21:32 | 50.74554 | -0.88216 | 14260 ft | 313 kts | 52° |
| 2026-05-04 21:32 | 50.75900 | -0.85610 | 14131 ft | 300 kts | 52° |
| 2026-05-04 21:33 | 50.77185 | -0.83122 | 14002 ft | 291 kts | 52° |
| 2026-05-04 21:33 | 50.78452 | -0.80664 | 13666 ft | 289 kts | 52° |
| 2026-05-04 21:33 | 50.79713 | -0.78216 | 13328 ft | 287 kts | 52° |
| 2026-05-04 21:33 | 50.80850 | -0.75632 | 13012 ft | 283 kts | 64° |
| 2026-05-04 21:34 | 50.81458 | -0.72701 | 12786 ft | 286 kts | 78° |
| 2026-05-04 21:34 | 50.81839 | -0.69569 | 12575 ft | 293 kts | 80° |
| 2026-05-04 21:34 | 50.82164 | -0.66688 | 12351 ft | 294 kts | 80° |
| 2026-05-04 21:34 | 50.82524 | -0.63523 | 12091 ft | 292 kts | 80° |
| 2026-05-04 21:35 | 50.82766 | -0.61415 | 11915 ft | 291 kts | 80° |
| 2026-05-04 21:35 | 50.83126 | -0.58290 | 11665 ft | 291 kts | 80° |
| 2026-05-04 21:35 | 50.83486 | -0.55162 | 11410 ft | 290 kts | 80° |
| 2026-05-04 21:35 | 50.83846 | -0.52039 | 11164 ft | 289 kts | 80° |
| 2026-05-04 21:36 | 50.84206 | -0.48916 | 10918 ft | 289 kts | 80° |
| 2026-05-04 21:36 | 50.84561 | -0.45830 | 10676 ft | 289 kts | 80° |
| 2026-05-04 21:36 | 50.84919 | -0.42703 | 10432 ft | 288 kts | 80° |
| 2026-05-04 21:36 | 50.85272 | -0.39621 | 10200 ft | 288 kts | 80° |
| 2026-05-04 21:37 | 50.85629 | -0.36497 | 9956 ft | 288 kts | 80° |
| 2026-05-04 21:37 | 50.85981 | -0.33405 | 9691 ft | 286 kts | 80° |
| 2026-05-04 21:37 | 50.86327 | -0.30360 | 9518 ft | 276 kts | 80° |
| 2026-05-04 21:37 | 50.86659 | -0.27427 | 9336 ft | 265 kts | 80° |
| 2026-05-04 21:38 | 50.86973 | -0.24655 | 9171 ft | 256 kts | 80° |
| 2026-05-04 21:38 | 50.87226 | -0.22417 | 9032 ft | 248 kts | 80° |
| 2026-05-04 21:38 | 50.87501 | -0.19975 | 8912 ft | 238 kts | 80° |
| 2026-05-04 21:38 | 50.87782 | -0.17470 | 8770 ft | 229 kts | 80° |
| 2026-05-04 21:39 | 50.88052 | -0.15066 | 8657 ft | 217 kts | 80° |
| 2026-05-04 21:39 | 50.88285 | -0.12987 | 8540 ft | 207 kts | 80° |
| 2026-05-04 21:39 | 50.88529 | -0.10804 | 8401 ft | 197 kts | 80° |
| 2026-05-04 21:39 | 50.88744 | -0.08879 | 8257 ft | 190 kts | 80° |
| 2026-05-04 21:40 | 50.89132 | -0.06921 | 8119 ft | 189 kts | 57° |
| 2026-05-04 21:40 | 50.90119 | -0.05649 | 7897 ft | 190 kts | 21° |
| 2026-05-04 21:40 | 50.91430 | -0.05584 | 7568 ft | 191 kts | 342° |
| 2026-05-04 21:40 | 50.92468 | -0.06793 | 7295 ft | 188 kts | 306° |
| 2026-05-04 21:41 | 50.93084 | -0.08567 | 7025 ft | 187 kts | 290° |
| 2026-05-04 21:41 | 50.93379 | -0.10126 | 6828 ft | 186 kts | 285° |
| 2026-05-04 21:41 | 50.93721 | -0.11796 | 6628 ft | 185 kts | 294° |
| 2026-05-04 21:41 | 50.94460 | -0.13449 | 6489 ft | 184 kts | 322° |
| 2026-05-04 21:42 | 50.95546 | -0.14124 | 6383 ft | 181 kts | 359° |
| 2026-05-04 21:42 | 50.96641 | -0.13647 | 6258 ft | 178 kts | 34° |
| 2026-05-04 21:42 | 50.97361 | -0.12148 | 6132 ft | 178 kts | 71° |
| 2026-05-04 21:42 | 50.97505 | -0.10212 | 6031 ft | 179 kts | 92° |
| 2026-05-04 21:43 | 50.97394 | -0.08238 | 5944 ft | 179 kts | 94° |
| 2026-05-04 21:43 | 50.97410 | -0.06270 | 5846 ft | 178 kts | 84° |
| 2026-05-04 21:43 | 50.97220 | -0.04356 | 5732 ft | 184 kts | 114° |
| 2026-05-04 21:43 | 50.96314 | -0.02876 | 5253 ft | 198 kts | 152° |
| 2026-05-04 21:44 | 50.94968 | -0.02598 | 5046 ft | 193 kts | 191° |
| 2026-05-04 21:44 | 50.93816 | -0.03583 | 4790 ft | 190 kts | 226° |
| 2026-05-04 21:44 | 50.93243 | -0.05402 | 4529 ft | 186 kts | 258° |
| 2026-05-04 21:44 | 50.93184 | -0.07407 | 4239 ft | 184 kts | 277° |
| 2026-05-04 21:45 | 50.93471 | -0.09352 | 3950 ft | 182 kts | 289° |
| 2026-05-04 21:45 | 50.94059 | -0.11112 | 3626 ft | 180 kts | 311° |
| 2026-05-04 21:45 | 50.94756 | -0.12516 | 3369 ft | 178 kts | 314° |
| 2026-05-04 21:45 | 50.95582 | -0.13518 | 3116 ft | 175 kts | 332° |
| 2026-05-04 21:46 | 50.96580 | -0.14650 | 3000 ft | 174 kts | 318° |
| 2026-05-04 21:46 | 50.97331 | -0.15996 | 3000 ft | 165 kts | 311° |
| 2026-05-04 21:46 | 50.97981 | -0.17512 | 2998 ft | 162 kts | 301° |
| 2026-05-04 21:46 | 50.98411 | -0.19041 | 3004 ft | 163 kts | 289° |
| 2026-05-04 21:47 | 50.98735 | -0.20835 | 3003 ft | 163 kts | 287° |
| 2026-05-04 21:47 | 50.99014 | -0.22566 | 3003 ft | 163 kts | 286° |
| 2026-05-04 21:47 | 50.99281 | -0.24260 | 3004 ft | 162 kts | 286° |
| 2026-05-04 21:47 | 50.99555 | -0.26015 | 2996 ft | 163 kts | 286° |
| 2026-05-04 21:48 | 50.99829 | -0.27764 | 2996 ft | 163 kts | 285° |
| 2026-05-04 21:48 | 51.00067 | -0.29280 | 2999 ft | 162 kts | 286° |
| 2026-05-04 21:48 | 51.00335 | -0.30998 | 2998 ft | 163 kts | 286° |
| 2026-05-04 21:48 | 51.00604 | -0.32743 | 2993 ft | 163 kts | 285° |
| 2026-05-04 21:49 | 51.00877 | -0.34488 | 2992 ft | 163 kts | 285° |
| 2026-05-04 21:49 | 51.01153 | -0.36233 | 2994 ft | 164 kts | 285° |
| 2026-05-04 21:49 | 51.01427 | -0.37946 | 2994 ft | 163 kts | 286° |
| 2026-05-04 21:49 | 51.01702 | -0.39698 | 2999 ft | 163 kts | 285° |
| 2026-05-04 21:50 | 51.01979 | -0.41439 | 2993 ft | 163 kts | 286° |
| 2026-05-04 21:50 | 51.02252 | -0.43174 | 2998 ft | 163 kts | 286° |
| 2026-05-04 21:50 | 51.02508 | -0.44786 | 2991 ft | 162 kts | 285° |
| 2026-05-04 21:50 | 51.02796 | -0.46582 | 2994 ft | 162 kts | 286° |
| 2026-05-04 21:51 | 51.03068 | -0.48207 | 2996 ft | 162 kts | 290° |
| 2026-05-04 21:51 | 51.03537 | -0.49725 | 3004 ft | 158 kts | 303° |
| 2026-05-04 21:51 | 51.04088 | -0.51024 | 2991 ft | 151 kts | 315° |
| 2026-05-04 21:51 | 51.04878 | -0.52055 | 2996 ft | 148 kts | 323° |
| 2026-05-04 21:52 | 51.05579 | -0.53012 | 3002 ft | 148 kts | 321° |
| 2026-05-04 21:52 | 51.06389 | -0.54034 | 2988 ft | 147 kts | 334° |
| 2026-05-04 21:52 | 51.07314 | -0.54336 | 3011 ft | 144 kts | 2° |
| 2026-05-04 21:52 | 51.08298 | -0.54332 | 3005 ft | 143 kts | 6° |
| 2026-05-04 21:53 | 51.09256 | -0.54148 | 2988 ft | 142 kts | 16° |
| 2026-05-04 21:53 | 51.10109 | -0.53379 | 3003 ft | 140 kts | 39° |
| 2026-05-04 21:53 | 51.10784 | -0.52495 | 3002 ft | 139 kts | 42° |
| 2026-05-04 21:53 | 51.11459 | -0.51560 | 2998 ft | 139 kts | 43° |
| 2026-05-04 21:54 | 51.11998 | -0.50794 | 2999 ft | 138 kts | 44° |
| 2026-05-04 21:54 | 51.12579 | -0.49556 | 2998 ft | 137 kts | 58° |
| 2026-05-04 21:54 | 51.12804 | -0.48199 | 3010 ft | 139 kts | 86° |
| 2026-05-04 21:54 | 51.12801 | -0.46741 | 3000 ft | 140 kts | 94° |
| 2026-05-04 21:55 | 51.12765 | -0.45411 | 3008 ft | 139 kts | 90° |
| 2026-05-04 21:55 | 51.12740 | -0.43882 | 2991 ft | 139 kts | 90° |
| 2026-05-04 21:55 | 51.12711 | -0.42324 | 2996 ft | 139 kts | 90° |
| 2026-05-04 21:55 | 51.12633 | -0.40844 | 2992 ft | 138 kts | 94° |
| 2026-05-04 21:56 | 51.12606 | -0.39311 | 2889 ft | 140 kts | 88° |
| 2026-05-04 21:56 | 51.12592 | -0.37790 | 2629 ft | 137 kts | 90° |
| 2026-05-04 21:56 | 51.12611 | -0.36297 | 2325 ft | 134 kts | 86° |
| 2026-05-04 21:56 | 51.12670 | -0.34965 | 2035 ft | 134 kts | 82° |
| 2026-05-04 21:57 | 51.12801 | -0.33542 | 1831 ft | 125 kts | 79° |
| 2026-05-04 21:57 | 51.12989 | -0.32203 | 1682 ft | 124 kts | 75° |
| 2026-05-04 21:57 | 51.13205 | -0.30853 | 1545 ft | 125 kts | 76° |
| 2026-05-04 21:57 | 51.13401 | -0.29524 | 1431 ft | 127 kts | 78° |
| 2026-05-04 21:58 | 51.13573 | -0.28269 | 1284 ft | 127 kts | 78° |
| 2026-05-04 21:58 | 51.13727 | -0.27015 | 1039 ft | 126 kts | 79° |
| 2026-05-04 21:58 | 51.13879 | -0.25797 | 843 ft | 124 kts | 75° |
| 2026-05-04 21:58 | 51.14059 | -0.24494 | 737 ft | 126 kts | 77° |
| 2026-05-04 21:59 | 51.14232 | -0.23316 | 598 ft | 126 kts | 77° |
| 2026-05-04 21:59 | 51.14420 | -0.21953 | 449 ft | 126 kts | 78° |
| 2026-05-04 21:59 | 51.14577 | -0.20798 | 344 ft | 125 kts | 78° |
| 2026-05-04 21:59 | 51.14758 | -0.19482 | 245 ft | 126 kts | 78° |
| 2026-05-04 22:00 | 51.14914 | -0.18303 | 223 ft | 79 kts | 76° |
| 2026-05-04 22:00 | 51.14957 | -0.18025 | 223 ft | 24 kts | 76° |
| 2026-05-04 22:00 | 51.14965 | -0.17986 | 220 ft | 0 kts | 69° |
| 2026-05-04 22:00 | 51.14988 | -0.17932 | 223 ft | 14 kts | 49° |
| 2026-05-04 22:01 | 51.15086 | -0.17775 | 220 ft | 11 kts | 19° |
| 2026-05-04 22:01 | 51.15093 | -0.17772 | 222 ft | 0 kts | 15° |
| 2026-05-04 22:01 | 51.15110 | -0.17770 | 220 ft | 10 kts | 2° |
| 2026-05-04 22:02 | 51.15228 | -0.17799 | 218 ft | 16 kts | 325° |
| 2026-05-04 22:02 | 51.15244 | -0.17884 | 222 ft | 8 kts | 251° |
| 2026-05-04 22:02 | 51.15229 | -0.17981 | 219 ft | 12 kts | 257° |
| 2026-05-04 22:02 | 51.15209 | -0.18123 | 217 ft | 16 kts | 257° |
| 2026-05-04 22:03 | 51.15189 | -0.18312 | 219 ft | 19 kts | 261° |
| 2026-05-04 22:03 | 51.15172 | -0.18439 | 219 ft | 21 kts | 258° |
| 2026-05-04 22:03 | 51.15150 | -0.18599 | 211 ft | 16 kts | 257° |